Haywood City, Missouri
Current Conditions -  °F | °C
As of 10:53 AM on Wednesday 26 Nov 2014 (Local Time) from KCGI Reporting Station
Overcast Overcast  
Wind Chill: 29°   Ceiling: 8000
Heat Index: 37°   Visibility: 10mi
Dew Point: 32°   Wind: 12mph
Humidity: 82%   Direction: 150°SSE
Pressure: 30.06"   Gusts: NA
Location:  37.0868°N, 89.7125°W
Report Text: KCGI 261653Z 15010KT 10SM BKN080 OVC100 03/00 A3006 RMK AO2 SLP182 T00280000
Loading
Personal Weather Stations






























Interactive Weather Map New forecast layout! Learn more

10-Day Weather Forecast

Advertisements
Track Severe Weather on mobile